createdAt,value
2022-10-17T00:00:53.305Z,101259.78
2022-10-17T00:03:24.031Z,101258.69
2022-10-17T00:05:54.796Z,101268.56
2022-10-17T00:08:26.520Z,101269.97
2022-10-17T00:11:02.916Z,101271.09
2022-10-17T00:13:34.728Z,101273.25
2022-10-17T00:16:05.460Z,101275.47
2022-10-17T00:18:36.361Z,101285.09
2022-10-17T00:21:07.660Z,101288.13
2022-10-17T00:23:38.412Z,101285.63
2022-10-17T00:26:09.654Z,101301.03
2022-10-17T00:28:40.906Z,101303.19
2022-10-17T00:31:14.062Z,101312.56
2022-10-17T00:33:46.627Z,101316.97
2022-10-17T00:36:31.275Z,101313.69
2022-10-17T00:39:03.061Z,101322.47
2022-10-17T00:41:36.339Z,101325.78
2022-10-17T00:44:34.762Z,101331.22
2022-10-17T00:47:11.007Z,101335.63
2022-10-17T00:49:42.450Z,101338.41
2022-10-17T00:52:17.674Z,101346.13
2022-10-17T00:54:52.190Z,101341.47
2022-10-17T00:57:23.152Z,101343.34
2022-10-17T00:59:58.743Z,101344.97
2022-10-17T01:02:29.974Z,101343.09
2022-10-17T01:05:02.330Z,101349.94
2022-10-17T01:07:37.148Z,101348.31
2022-10-17T01:10:10.518Z,101359.28
2022-10-17T01:12:51.373Z,101364.50
2022-10-17T01:15:39.288Z,101359.88
2022-10-17T01:18:21.856Z,101372.25
2022-10-17T01:20:58.536Z,101356.84
2022-10-17T01:23:53.334Z,101361.75
2022-10-17T01:26:38.933Z,101374.69
2022-10-17T01:29:23.472Z,101378.53
2022-10-17T01:32:05.909Z,101376.56
2022-10-17T01:34:44.850Z,101382.09
2022-10-17T01:37:32.275Z,101380.19
2022-10-17T01:40:40.065Z,101381.53
2022-10-17T01:43:24.302Z,101381.00
2022-10-17T01:46:09.139Z,101383.47
2022-10-17T01:48:44.887Z,101377.66
2022-10-17T01:51:21.713Z,101376.34
2022-10-17T01:53:57.898Z,101385.34
2022-10-17T01:56:33.296Z,101381.50
2022-10-17T01:59:26.428Z,101382.31
2022-10-17T02:02:01.072Z,101381.50
2022-10-17T02:04:32.174Z,101383.94
2022-10-17T02:07:10.910Z,101374.34
2022-10-17T02:09:42.809Z,101377.13
2022-10-17T02:12:31.348Z,101378.78
2022-10-17T02:15:23.761Z,101375.16
2022-10-17T02:18:12.331Z,101380.97
2022-10-17T02:21:03.594Z,101392.50
2022-10-17T02:23:41.871Z,101388.97
2022-10-17T02:26:28.951Z,101384.81
2022-10-17T02:29:20.574Z,101391.19
2022-10-17T02:32:49.378Z,101394.16
2022-10-17T02:35:25.783Z,101389.22
2022-10-17T02:37:57.879Z,101389.53
2022-10-17T02:40:32.138Z,101382.63
2022-10-17T02:43:03.873Z,101382.38
2022-10-17T02:45:38.641Z,101386.16
2022-10-17T02:48:19.512Z,101385.59
2022-10-17T02:51:20.521Z,101382.84
2022-10-17T02:54:09.047Z,101376.81
2022-10-17T02:56:58.182Z,101373.78
2022-10-17T02:59:32.229Z,101375.66
2022-10-17T03:02:09.216Z,101365.53
2022-10-17T03:04:40.478Z,101373.22
2022-10-17T03:07:13.105Z,101372.09
2022-10-17T03:09:43.858Z,101360.81
2022-10-17T03:12:14.715Z,101366.84
2022-10-17T03:14:45.474Z,101363.03
2022-10-17T03:17:16.195Z,101368.53
2022-10-17T03:19:47.127Z,101366.31
2022-10-17T03:22:18.348Z,101365.78
2022-10-17T03:24:50.540Z,101363.84
2022-10-17T03:27:21.514Z,101350.34
2022-10-17T03:29:52.600Z,101353.09
2022-10-17T03:32:24.621Z,101345.72
2022-10-17T03:34:55.457Z,101348.16
2022-10-17T03:37:26.956Z,101347.34
2022-10-17T03:39:57.964Z,101346.19
2022-10-17T03:42:28.967Z,101336.84
2022-10-17T03:44:59.780Z,101324.47
2022-10-17T03:47:31.736Z,101329.97
2022-10-17T03:50:02.929Z,101330.50
2022-10-17T03:52:36.919Z,101322.53
2022-10-17T03:55:08.104Z,101313.75
2022-10-17T03:57:42.150Z,101312.09
2022-10-17T04:00:17.058Z,101319.50
2022-10-17T04:02:56.518Z,101307.69
2022-10-17T04:05:28.215Z,101301.94
2022-10-17T04:08:03.859Z,101296.69
2022-10-17T04:11:06.655Z,101292.28
2022-10-17T04:13:38.396Z,101298.00
2022-10-17T04:16:19.447Z,101289.78
2022-10-17T04:19:02.907Z,101283.19
2022-10-17T04:21:39.414Z,101273.25
2022-10-17T04:24:14.396Z,101266.41
2022-10-17T04:26:54.112Z,101264.50
2022-10-17T04:29:28.713Z,101255.19
2022-10-17T04:32:22.490Z,101252.66
2022-10-17T04:35:19.408Z,101248.50
2022-10-17T04:37:55.099Z,101242.19
2022-10-17T04:40:25.901Z,101232.81
2022-10-17T04:42:57.293Z,101225.41
2022-10-17T04:45:35.332Z,101217.16
2022-10-17T04:48:08.537Z,101212.19
2022-10-17T04:50:39.557Z,101211.84
2022-10-17T04:53:31.350Z,101201.44
2022-10-17T04:56:02.471Z,101198.97
2022-10-17T04:58:33.375Z,101193.19
2022-10-17T05:01:09.115Z,101180.78
2022-10-17T05:03:41.594Z,101180.25
2022-10-17T05:06:13.931Z,101166.81
2022-10-17T05:08:49.502Z,101168.66
2022-10-17T05:11:30.612Z,101158.84
2022-10-17T05:14:03.618Z,101158.47
2022-10-17T05:16:36.140Z,101153.56
2022-10-17T05:19:07.353Z,101141.75
2022-10-17T05:21:45.138Z,101137.56
2022-10-17T05:24:18.142Z,101131.78
2022-10-17T05:26:49.028Z,101124.13
2022-10-17T05:29:19.961Z,101117.72
2022-10-17T05:31:56.079Z,101108.16
2022-10-17T05:34:27.943Z,101101.81
2022-10-17T05:36:58.698Z,101092.16
2022-10-17T05:39:29.572Z,101102.06
2022-10-17T05:42:01.756Z,101084.44
2022-10-17T05:44:32.775Z,101087.47
2022-10-17T05:47:03.612Z,101081.06
2022-10-17T05:49:45.003Z,101081.06
2022-10-17T05:52:21.518Z,101070.06
2022-10-17T05:55:08.382Z,101064.28
2022-10-17T05:57:39.270Z,101061.81
2022-10-17T06:00:15.085Z,101045.63
2022-10-17T06:02:50.315Z,101044.72
2022-10-17T06:05:23.061Z,101026.88
2022-10-17T06:07:58.222Z,101028.22
2022-10-17T06:10:33.847Z,101021.00
2022-10-17T06:13:04.933Z,101009.78
2022-10-17T06:15:36.053Z,101002.03
2022-10-17T06:18:10.648Z,100996.53
2022-10-17T06:20:45.324Z,100994.28
2022-10-17T06:23:19.732Z,100995.13
2022-10-17T06:26:04.820Z,100977.50
2022-10-17T06:28:37.465Z,100973.91
2022-10-17T06:31:16.581Z,100965.38
2022-10-17T06:33:47.439Z,100965.38
2022-10-17T06:36:18.597Z,100959.56
2022-10-17T06:38:50.930Z,100945.00
2022-10-17T06:41:37.005Z,100948.03
2022-10-17T06:44:13.884Z,100942.25
2022-10-17T06:47:20.194Z,100939.50
2022-10-17T06:49:52.878Z,100935.00
2022-10-17T06:52:46.635Z,100924.53
2022-10-17T06:55:37.946Z,100918.75
2022-10-17T06:58:21.994Z,100909.13
2022-10-17T07:01:16.654Z,100909.13
2022-10-17T07:03:52.886Z,100901.41
2022-10-17T07:06:26.888Z,100895.88
2022-10-17T07:09:00.013Z,100890.38
2022-10-17T07:11:31.072Z,100884.38
2022-10-17T07:14:01.999Z,100878.78
2022-10-17T07:16:32.979Z,100871.97
2022-10-17T07:19:17.141Z,100863.38
2022-10-17T07:21:48.025Z,100862.28
2022-10-17T07:24:19.026Z,100861.44
2022-10-17T07:27:08.806Z,100848.81
2022-10-17T07:29:39.910Z,100846.38
2022-10-17T07:32:20.258Z,100841.88
2022-10-17T07:34:51.331Z,100835.56
2022-10-17T07:37:22.265Z,100830.06
2022-10-17T07:39:59.177Z,100832.00
2022-10-17T07:42:31.130Z,100830.88
2022-10-17T07:45:02.715Z,100821.78
2022-10-17T07:47:38.373Z,100818.25
2022-10-17T07:50:12.108Z,100809.97
2022-10-17T07:52:42.603Z,100814.38
2022-10-17T07:55:13.698Z,100808.25
2022-10-17T07:57:44.461Z,100811.31
2022-10-17T08:00:15.594Z,100805.00
2022-10-17T08:02:46.511Z,100808.88
2022-10-17T08:05:17.503Z,100798.16
2022-10-17T08:07:48.279Z,100790.13
2022-10-17T08:10:19.976Z,100798.38
2022-10-17T08:12:50.785Z,100800.00
2022-10-17T08:15:21.544Z,100790.13
2022-10-17T08:17:52.413Z,100783.50
2022-10-17T08:20:23.202Z,100783.19
2022-10-17T08:22:58.461Z,100788.69
2022-10-17T08:25:29.211Z,100784.00
2022-10-17T08:28:01.487Z,100785.13
2022-10-17T08:30:35.166Z,100772.16
2022-10-17T08:33:05.980Z,100773.28
2022-10-17T08:35:37.087Z,100784.50
2022-10-17T08:38:09.089Z,100778.50
2022-10-17T08:40:45.507Z,100771.84
2022-10-17T08:43:42.215Z,100772.16
2022-10-17T08:48:48.013Z,100765.75
2022-10-17T08:51:20.601Z,100763.59
2022-10-17T08:53:51.513Z,100765.75
2022-10-17T08:56:25.024Z,100760.56
2022-10-17T08:59:16.778Z,100757.47
2022-10-17T09:02:07.779Z,100754.72
2022-10-17T09:04:48.136Z,100764.00
2022-10-17T09:07:26.430Z,100769.84
2022-10-17T09:10:11.759Z,100759.31
2022-10-17T09:12:57.866Z,100770.63
2022-10-17T09:15:31.629Z,100763.00
2022-10-17T09:18:18.710Z,100770.63
2022-10-17T09:21:08.678Z,100767.09
2022-10-17T09:23:59.592Z,100769.00
2022-10-17T09:26:42.461Z,100768.72
2022-10-17T09:29:28.676Z,100766.25
2022-10-17T09:32:14.729Z,100769.00
2022-10-17T09:34:45.465Z,100780.00
2022-10-17T09:37:18.625Z,100780.53
2022-10-17T09:39:49.751Z,100781.31
2022-10-17T09:42:24.342Z,100780.84
2022-10-17T09:45:07.436Z,100784.06
2022-10-17T09:47:44.053Z,100793.69
2022-10-17T09:50:35.228Z,100797.56
2022-10-17T09:53:32.835Z,100801.09
2022-10-17T09:56:10.663Z,100801.75
2022-10-17T09:58:49.980Z,100799.78
2022-10-17T10:01:32.434Z,100806.09
2022-10-17T10:04:16.409Z,100806.94
2022-10-17T10:07:09.007Z,100812.94
2022-10-17T10:09:41.658Z,100814.06
2022-10-17T10:12:24.184Z,100822.31
2022-10-17T10:14:55.689Z,100827.81
2022-10-17T10:17:42.215Z,100829.47
2022-10-17T10:20:33.089Z,100826.72
2022-10-17T10:23:21.382Z,100832.50
2022-10-17T10:25:57.100Z,100844.34
2022-10-17T10:28:35.178Z,100846.25
2022-10-17T10:33:58.480Z,100854.22
2022-10-17T10:36:29.365Z,100854.75
2022-10-17T10:39:03.899Z,100855.03
2022-10-17T10:41:50.747Z,100856.06
2022-10-17T10:44:24.995Z,100861.88
2022-10-17T10:47:26.855Z,100865.75
2022-10-17T10:50:42.998Z,100871.25
2022-10-17T10:53:48.019Z,100871.53
2022-10-17T10:56:29.147Z,100871.25
2022-10-17T10:59:13.943Z,100875.31
2022-10-17T11:02:03.064Z,100886.34
2022-10-17T11:04:38.944Z,100888.00
2022-10-17T11:07:35.770Z,100884.41
2022-10-17T11:10:26.193Z,100891.31
2022-10-17T11:13:18.792Z,100894.31
2022-10-17T11:16:00.527Z,100899.81
2022-10-17T11:18:42.470Z,100893.78
2022-10-17T11:21:24.376Z,100898.19
2022-10-17T11:24:08.357Z,100902.84
2022-10-17T11:26:51.766Z,100907.28
2022-10-17T11:29:22.938Z,100921.84
2022-10-17T11:31:58.470Z,100918.78
2022-10-17T11:34:32.582Z,100923.47
2022-10-17T11:37:31.566Z,100922.66
2022-10-17T11:40:36.413Z,100937.25
2022-10-17T11:43:20.285Z,100935.31
2022-10-17T11:45:58.971Z,100937.56
2022-10-17T11:48:44.010Z,100948.25
2022-10-17T11:54:57.697Z,100953.75
2022-10-17T11:57:43.047Z,100969.97
2022-10-17T12:00:32.555Z,100970.78
2022-10-17T12:03:09.303Z,100965.59
2022-10-17T12:05:59.141Z,100978.25
2022-10-17T12:08:40.342Z,100980.47
2022-10-17T12:11:13.951Z,100983.22
2022-10-17T12:13:52.415Z,100990.38
2022-10-17T12:16:23.174Z,100988.13
2022-10-17T12:19:09.122Z,100999.66
2022-10-17T12:22:00.134Z,101004.13
2022-10-17T12:24:48.709Z,101009.34
2022-10-17T12:27:34.373Z,101018.09
2022-10-17T12:30:19.376Z,101020.34
2022-10-17T12:33:08.405Z,101022.81
2022-10-17T12:35:41.844Z,101030.25
2022-10-17T12:38:24.885Z,101023.94
2022-10-17T12:40:58.401Z,101027.19
2022-10-17T12:43:32.030Z,101035.75
2022-10-17T12:46:04.970Z,101043.19
2022-10-17T12:48:42.173Z,101034.63
2022-10-17T12:54:17.951Z,101040.13
2022-10-17T12:56:52.976Z,101045.31
2022-10-17T12:59:29.014Z,101042.88
2022-10-17T13:02:04.377Z,101055.53
2022-10-17T13:04:39.233Z,101052.78
2022-10-17T13:07:25.013Z,101056.66
2022-10-17T13:09:56.084Z,101055.53
2022-10-17T13:12:32.329Z,101059.09
2022-10-17T13:15:06.608Z,101059.41
2022-10-17T13:17:40.662Z,101060.25
2022-10-17T13:20:35.283Z,101065.94
2022-10-17T13:23:06.597Z,101064.31
2022-10-17T13:25:39.558Z,101072.56
2022-10-17T13:28:16.790Z,101081.94
2022-10-17T13:30:51.432Z,101086.34
2022-10-17T13:33:37.999Z,101088.88
2022-10-17T13:36:18.491Z,101097.63
2022-10-17T13:38:50.223Z,101098.69
2022-10-17T13:41:41.785Z,101105.63
2022-10-17T13:44:20.033Z,101103.13
2022-10-17T13:46:51.533Z,101112.25
2022-10-17T13:49:34.013Z,101106.72
2022-10-17T13:52:07.751Z,101118.53
2022-10-17T13:54:45.232Z,101118.25
2022-10-17T13:57:25.899Z,101120.69
2022-10-17T14:00:26.387Z,101112.75
2022-10-17T14:02:57.240Z,101121.03
2022-10-17T14:05:28.000Z,101124.19
2022-10-17T14:08:12.032Z,101125.94
2022-10-17T14:10:46.441Z,101135.38
2022-10-17T14:13:30.102Z,101134.84
2022-10-17T14:16:04.224Z,101136.19
2022-10-17T14:18:38.310Z,101141.78
2022-10-17T14:24:38.256Z,101136.28
2022-10-17T14:27:34.193Z,101141.78
2022-10-17T14:30:11.011Z,101137.16
2022-10-17T14:32:46.072Z,101135.75
2022-10-17T14:35:41.224Z,101137.97
2022-10-17T14:38:15.169Z,101145.34
2022-10-17T14:41:09.601Z,101145.34
2022-10-17T14:43:47.843Z,101142.59
2022-10-17T14:46:19.729Z,101146.81
2022-10-17T14:48:56.902Z,101149.56
2022-10-17T14:51:32.414Z,101151.69
2022-10-17T14:54:28.049Z,101153.53
2022-10-17T14:56:59.625Z,101154.13
2022-10-17T14:59:52.791Z,101157.09
2022-10-17T15:02:20.890Z,101158.44
2022-10-17T15:04:51.627Z,101159.84
2022-10-17T15:07:23.872Z,101165.88
2022-10-17T15:09:56.574Z,101163.38
2022-10-17T15:12:29.268Z,101167.22
2022-10-17T15:15:42.763Z,101161.72
2022-10-17T15:18:17.380Z,101160.28
2022-10-17T15:20:51.995Z,101160.09
2022-10-17T15:23:30.624Z,101163.66
2022-10-17T15:26:01.372Z,101163.38
2022-10-17T15:28:32.627Z,101164.97
2022-10-17T15:31:03.467Z,101169.16
2022-10-17T15:33:34.166Z,101170.78
2022-10-17T15:36:05.045Z,101167.72
2022-10-17T15:38:36.657Z,101170.78
2022-10-17T15:41:07.589Z,101171.09
2022-10-17T15:43:38.737Z,101163.38
2022-10-17T15:46:17.427Z,101162.75
2022-10-17T15:48:48.634Z,101157.84
2022-10-17T15:51:20.331Z,101159.47
2022-10-17T15:53:51.150Z,101160.28
2022-10-17T15:56:46.033Z,101145.19
2022-10-17T15:59:21.540Z,101142.94
2022-10-17T16:01:52.612Z,101146.31
2022-10-17T16:04:23.566Z,101143.19
2022-10-17T16:06:54.568Z,101140.50
2022-10-17T16:09:25.452Z,101138.59
2022-10-17T16:11:56.240Z,101138.59
2022-10-17T16:14:27.168Z,101133.66
2022-10-17T16:16:58.028Z,101134.25
2022-10-17T16:19:32.795Z,101139.19
2022-10-17T16:22:05.300Z,101137.16
2022-10-17T16:24:36.247Z,101129.28
2022-10-17T16:27:07.011Z,101138.66
2022-10-17T16:29:37.666Z,101140.28
2022-10-17T16:32:08.496Z,101139.47
2022-10-17T16:34:39.246Z,101137.81
2022-10-17T16:37:10.033Z,101135.38
2022-10-17T16:39:40.781Z,101134.78
2022-10-17T16:42:11.522Z,101130.66
2022-10-17T16:44:42.281Z,101118.84
2022-10-17T16:47:13.818Z,101127.63
2022-10-17T16:49:45.407Z,101128.22
2022-10-17T16:52:16.701Z,101128.22
2022-10-17T16:54:47.516Z,101118.25
2022-10-17T16:57:18.642Z,101118.53
2022-10-17T16:59:49.930Z,101121.03
2022-10-17T17:02:21.541Z,101114.47
2022-10-17T17:04:52.612Z,101117.22
2022-10-17T17:07:24.501Z,101115.31
2022-10-17T17:09:56.529Z,101110.06
2022-10-17T17:12:27.448Z,101119.97
2022-10-17T17:14:58.365Z,101111.19
2022-10-17T17:17:36.981Z,101112.53
2022-10-17T17:20:15.552Z,101104.06
2022-10-17T17:22:46.301Z,101105.69
2022-10-17T17:25:29.781Z,101099.66
2022-10-17T17:28:00.571Z,101101.28
2022-10-17T17:30:32.377Z,101097.44
2022-10-17T17:33:04.113Z,101090.88
2022-10-17T17:35:35.043Z,101095.00
2022-10-17T17:38:07.183Z,101092.50
2022-10-17T17:40:38.127Z,101094.22
2022-10-17T17:43:08.817Z,101087.09
2022-10-17T17:45:39.500Z,101077.72
2022-10-17T17:48:10.368Z,101074.97
2022-10-17T17:50:42.738Z,101073.31
2022-10-17T17:53:14.924Z,101065.34
2022-10-17T17:55:45.974Z,101067.22
2022-10-17T17:58:16.926Z,101061.72
2022-10-17T18:00:47.686Z,101058.44
2022-10-17T18:03:18.219Z,101058.19
2022-10-17T18:05:49.049Z,101052.94
2022-10-17T18:08:19.931Z,101058.97
2022-10-17T18:10:52.814Z,101052.06
2022-10-17T18:13:23.942Z,101055.00
2022-10-17T18:15:54.707Z,101043.56
2022-10-17T18:18:25.537Z,101040.72
2022-10-17T18:20:57.297Z,101030.84
2022-10-17T18:23:28.257Z,101024.22
2022-10-17T18:26:00.944Z,101029.72
2022-10-17T18:28:32.228Z,101023.19
2022-10-17T18:31:07.431Z,101020.41
2022-10-17T18:33:38.534Z,101015.00
2022-10-17T18:36:13.795Z,101009.50
2022-10-17T18:38:45.611Z,101009.13
2022-10-17T18:41:19.275Z,101001.94
2022-10-17T18:43:51.684Z,101001.66
2022-10-17T18:46:25.183Z,100997.81
2022-10-17T18:48:56.547Z,100997.00
2022-10-17T18:51:27.608Z,100995.66
2022-10-17T18:54:01.244Z,100991.78
2022-10-17T18:56:32.600Z,100997.81
2022-10-17T18:59:04.144Z,100994.53
2022-10-17T19:01:35.086Z,100998.91
2022-10-17T19:04:05.899Z,100982.69
2022-10-17T19:06:36.458Z,100993.94
2022-10-17T19:09:10.486Z,100984.72
2022-10-17T19:11:42.244Z,100988.00
2022-10-17T19:14:17.673Z,100974.00
2022-10-17T19:16:51.472Z,100974.63
2022-10-17T19:19:25.522Z,100972.38
2022-10-17T19:21:57.025Z,100966.06
2022-10-17T19:24:28.362Z,100973.72
2022-10-17T19:27:05.261Z,100965.44
2022-10-17T19:29:36.098Z,100972.59
2022-10-17T19:32:11.959Z,100958.31
2022-10-17T19:34:46.681Z,100963.81
2022-10-17T19:37:17.484Z,100955.25
2022-10-17T19:39:48.168Z,100961.78
2022-10-17T19:42:18.895Z,100966.47
2022-10-17T19:44:49.425Z,100962.78
2022-10-17T19:47:20.130Z,100972.06
2022-10-17T19:49:50.996Z,100960.53
2022-10-17T19:52:21.547Z,100960.03
2022-10-17T19:54:52.327Z,100957.28
2022-10-17T19:57:23.040Z,100953.72
2022-10-17T19:59:55.964Z,100954.53
2022-10-17T20:02:26.962Z,100946.25
2022-10-17T20:05:13.879Z,100959.50
2022-10-17T20:07:48.355Z,100948.09
2022-10-17T20:10:24.018Z,100944.13
2022-10-17T20:12:54.667Z,100948.59
2022-10-17T20:15:25.314Z,100952.69
2022-10-17T20:17:55.906Z,100955.63
2022-10-17T20:20:26.919Z,100950.72
2022-10-17T20:22:57.977Z,100954.91
2022-10-17T20:25:28.738Z,100954.41
2022-10-17T20:27:59.567Z,100952.38
2022-10-17T20:30:30.402Z,100943.63
2022-10-17T20:33:01.114Z,100944.75
2022-10-17T20:35:32.125Z,100951.13
2022-10-17T20:38:03.109Z,100948.09
2022-10-17T20:40:35.445Z,100953.00
2022-10-17T20:43:09.217Z,100953.59
2022-10-17T20:45:51.430Z,100949.41
2022-10-17T20:48:22.808Z,100950.53
2022-10-17T20:50:54.460Z,100948.09
2022-10-17T20:53:36.516Z,100955.44
2022-10-17T20:56:10.918Z,100959.31
2022-10-17T20:58:42.206Z,100964.50
2022-10-17T21:01:13.791Z,100960.63
2022-10-17T21:03:46.552Z,100960.63
2022-10-17T21:06:19.358Z,100957.16
2022-10-17T21:08:51.005Z,100962.56
2022-10-17T21:11:24.630Z,100968.88
2022-10-17T21:14:01.588Z,100972.25
2022-10-17T21:16:34.012Z,100964.00
2022-10-17T21:19:05.435Z,100963.56
2022-10-17T21:21:37.225Z,100975.50
2022-10-17T21:24:10.489Z,100977.41
2022-10-17T21:26:41.574Z,100980.66
2022-10-17T21:29:14.561Z,100980.06
2022-10-17T21:31:48.082Z,100976.91
2022-10-17T21:34:24.683Z,100980.16
2022-10-17T21:36:55.844Z,100978.81
2022-10-17T21:39:27.659Z,100983.00
2022-10-17T21:41:58.644Z,100987.28
2022-10-17T21:44:30.439Z,100993.31
2022-10-17T21:47:00.977Z,100986.09
2022-10-17T21:49:32.574Z,100998.81
2022-10-17T21:52:06.446Z,100993.03
2022-10-17T21:54:37.095Z,100998.81
2022-10-17T21:57:08.060Z,100999.53
2022-10-17T21:59:38.892Z,100997.50
2022-10-17T22:02:09.692Z,101007.59
2022-10-17T22:04:40.520Z,100997.19
2022-10-17T22:07:11.181Z,101001.38
2022-10-17T22:09:41.990Z,100998.81
2022-10-17T22:12:13.125Z,100996.75
2022-10-17T22:14:43.970Z,100998.41
2022-10-17T22:17:14.989Z,101003.28
2022-10-17T22:19:45.853Z,101003.28
2022-10-17T22:22:16.670Z,101005.38
2022-10-17T22:24:47.296Z,101005.75
2022-10-17T22:27:18.041Z,101003.72
2022-10-17T22:29:48.821Z,101006.47
2022-10-17T22:32:22.412Z,101011.53
2022-10-17T22:34:53.448Z,101014.38
2022-10-17T22:37:24.503Z,101016.44
2022-10-17T22:39:55.174Z,101015.84
2022-10-17T22:42:25.887Z,101022.25
2022-10-17T22:44:56.626Z,101024.50
2022-10-17T22:47:27.561Z,101027.63
2022-10-17T22:49:58.566Z,101035.88
2022-10-17T22:52:29.819Z,101035.34
2022-10-17T22:55:01.354Z,101039.22
2022-10-17T22:57:32.080Z,101038.09
2022-10-17T23:01:29.145Z,101048.81
2022-10-17T23:03:59.870Z,101049.56
2022-10-17T23:06:30.654Z,101057.88
2022-10-17T23:09:01.824Z,101072.53
2022-10-17T23:11:32.855Z,101065.47
2022-10-17T23:14:03.567Z,101069.13
2022-10-17T23:16:34.299Z,101074.94
2022-10-17T23:19:05.057Z,101065.31
2022-10-17T23:21:35.784Z,101070.22
2022-10-17T23:24:06.685Z,101068.91
2022-10-17T23:26:37.524Z,101077.91
2022-10-17T23:29:08.369Z,101080.50
2022-10-17T23:31:39.197Z,101090.28
2022-10-17T23:34:09.845Z,101090.81
2022-10-17T23:36:41.207Z,101096.94
2022-10-17T23:39:11.899Z,101101.59
2022-10-17T23:41:43.001Z,101096.84
2022-10-17T23:44:14.641Z,101097.75
2022-10-17T23:46:45.362Z,101098.31
2022-10-17T23:49:16.144Z,101101.59
2022-10-17T23:51:46.827Z,101108.78
2022-10-17T23:54:17.649Z,101105.56
2022-10-17T23:56:48.569Z,101111.84
2022-10-17T23:59:19.299Z,101112.38
